sensor_id;sensor_type;location;lat;lon;timestamp;temperature;humidity
26272;DHT22;13997;48.902;12.472;2023-05-18T00:02:00;180.00;2252.80
26272;DHT22;13997;48.902;12.472;2023-05-18T00:04:26;180.00;2252.80
26272;DHT22;13997;48.902;12.472;2023-05-18T00:06:53;179.90;2252.80
26272;DHT22;13997;48.902;12.472;2023-05-18T00:09:25;179.90;2252.80
26272;DHT22;13997;48.902;12.472;2023-05-18T00:11:51;179.90;2252.80
26272;DHT22;13997;48.902;12.472;2023-05-18T00:14:18;179.90;2252.80
26272;DHT22;13997;48.902;12.472;2023-05-18T00:16:43;179.90;2252.80
26272;DHT22;13997;48.902;12.472;2023-05-18T00:19:09;179.80;2252.80
26272;DHT22;13997;48.902;12.472;2023-05-18T00:21:39;179.80;2252.80
26272;DHT22;13997;48.902;12.472;2023-05-18T00:24:05;179.80;2252.80
26272;DHT22;13997;48.902;12.472;2023-05-18T00:26:31;179.80;2252.80
26272;DHT22;13997;48.902;12.472;2023-05-18T00:28:56;179.70;2252.80
26272;DHT22;13997;48.902;12.472;2023-05-18T00:31:22;179.70;2252.80
26272;DHT22;13997;48.902;12.472;2023-05-18T00:33:47;179.60;2252.80
26272;DHT22;13997;48.902;12.472;2023-05-18T00:36:13;179.70;2252.80
26272;DHT22;13997;48.902;12.472;2023-05-18T00:38:38;179.60;2252.80
26272;DHT22;13997;48.902;12.472;2023-05-18T00:41:04;179.60;2252.80
26272;DHT22;13997;48.902;12.472;2023-05-18T00:43:30;179.60;2252.80
26272;DHT22;13997;48.902;12.472;2023-05-18T00:45:55;179.50;2252.80
26272;DHT22;13997;48.902;12.472;2023-05-18T00:48:21;179.40;2252.80
26272;DHT22;13997;48.902;12.472;2023-05-18T00:50:46;179.40;2252.80
26272;DHT22;13997;48.902;12.472;2023-05-18T00:53:12;179.30;2252.80
26272;DHT22;13997;48.902;12.472;2023-05-18T00:55:38;179.30;2252.80
26272;DHT22;13997;48.902;12.472;2023-05-18T00:58:03;179.30;2252.80
26272;DHT22;13997;48.902;12.472;2023-05-18T01:00:30;179.30;2252.80
26272;DHT22;13997;48.902;12.472;2023-05-18T01:02:55;179.30;2252.80
26272;DHT22;13997;48.902;12.472;2023-05-18T01:05:21;179.20;2252.80
26272;DHT22;13997;48.902;12.472;2023-05-18T01:07:48;154.50;2252.80
26272;DHT22;13997;48.902;12.472;2023-05-18T01:10:17;154.50;2252.80
26272;DHT22;13997;48.902;12.472;2023-05-18T01:13:08;154.50;2252.80
26272;DHT22;13997;48.902;12.472;2023-05-18T01:15:38;154.40;2252.80
26272;DHT22;13997;48.902;12.472;2023-05-18T01:18:30;154.40;2252.80
26272;DHT22;13997;48.902;12.472;2023-05-18T01:26:51;154.40;2252.80
26272;DHT22;13997;48.902;12.472;2023-05-18T01:29:22;154.40;2252.80
26272;DHT22;13997;48.902;12.472;2023-05-18T01:31:49;154.40;2252.80
26272;DHT22;13997;48.902;12.472;2023-05-18T01:34:15;154.30;2252.80
26272;DHT22;13997;48.902;12.472;2023-05-18T01:36:40;154.30;2252.80
26272;DHT22;13997;48.902;12.472;2023-05-18T01:39:06;154.30;2252.80
26272;DHT22;13997;48.902;12.472;2023-05-18T01:41:36;154.30;2252.80
26272;DHT22;13997;48.902;12.472;2023-05-18T01:47:00;154.20;2252.80
26272;DHT22;13997;48.902;12.472;2023-05-18T01:53:13;154.20;2252.80
26272;DHT22;13997;48.902;12.472;2023-05-18T01:55:14;154.20;2252.80
26272;DHT22;13997;48.902;12.472;2023-05-18T01:57:43;154.20;2252.80
26272;DHT22;13997;48.902;12.472;2023-05-18T02:00:10;154.20;2252.80
26272;DHT22;13997;48.902;12.472;2023-05-18T02:02:37;154.10;2252.80
26272;DHT22;13997;48.902;12.472;2023-05-18T02:05:02;154.10;2252.80
26272;DHT22;13997;48.902;12.472;2023-05-18T02:07:30;154.10;2252.80
26272;DHT22;13997;48.902;12.472;2023-05-18T02:09:55;154.10;2252.80
26272;DHT22;13997;48.902;12.472;2023-05-18T02:12:21;154.10;2252.80
26272;DHT22;13997;48.902;12.472;2023-05-18T02:14:47;154.00;2252.80
26272;DHT22;13997;48.902;12.472;2023-05-18T02:17:12;154.00;2252.80
26272;DHT22;13997;48.902;12.472;2023-05-18T02:19:38;154.00;2252.80
26272;DHT22;13997;48.902;12.472;2023-05-18T02:22:06;154.00;2252.80
26272;DHT22;13997;48.902;12.472;2023-05-18T02:24:33;154.00;2252.80
26272;DHT22;13997;48.902;12.472;2023-05-18T02:26:58;154.00;2252.80
26272;DHT22;13997;48.902;12.472;2023-05-18T02:29:24;154.00;2252.80
26272;DHT22;13997;48.902;12.472;2023-05-18T02:31:50;153.90;2252.80
26272;DHT22;13997;48.902;12.472;2023-05-18T02:34:15;153.90;2252.80
26272;DHT22;13997;48.902;12.472;2023-05-18T02:36:41;153.90;2252.80
26272;DHT22;13997;48.902;12.472;2023-05-18T02:39:08;153.90;2252.80
26272;DHT22;13997;48.902;12.472;2023-05-18T02:41:34;153.80;2252.80
26272;DHT22;13997;48.902;12.472;2023-05-18T02:44:01;153.80;2252.80
26272;DHT22;13997;48.902;12.472;2023-05-18T02:46:27;153.70;2252.80
26272;DHT22;13997;48.902;12.472;2023-05-18T02:48:53;153.70;2252.80
26272;DHT22;13997;48.902;12.472;2023-05-18T02:51:18;153.70;2252.80
26272;DHT22;13997;48.902;12.472;2023-05-18T02:53:44;153.70;2252.80
26272;DHT22;13997;48.902;12.472;2023-05-18T02:56:10;153.70;2252.80
26272;DHT22;13997;48.902;12.472;2023-05-18T02:58:37;153.70;2252.80
26272;DHT22;13997;48.902;12.472;2023-05-18T03:01:03;153.70;2252.80
26272;DHT22;13997;48.902;12.472;2023-05-18T03:03:32;153.70;2252.80
26272;DHT22;13997;48.902;12.472;2023-05-18T03:05:59;153.60;2252.80
26272;DHT22;13997;48.902;12.472;2023-05-18T03:08:25;153.60;2252.80
26272;DHT22;13997;48.902;12.472;2023-05-18T03:10:51;153.60;2252.80
26272;DHT22;13997;48.902;12.472;2023-05-18T03:13:17;153.60;2252.80
26272;DHT22;13997;48.902;12.472;2023-05-18T03:15:42;153.60;2252.80
26272;DHT22;13997;48.902;12.472;2023-05-18T03:18:10;128.90;2252.80
26272;DHT22;13997;48.902;12.472;2023-05-18T03:20:36;128.90;2252.80
26272;DHT22;13997;48.902;12.472;2023-05-18T03:23:03;128.90;2252.80
26272;DHT22;13997;48.902;12.472;2023-05-18T03:25:28;128.90;2252.80
26272;DHT22;13997;48.902;12.472;2023-05-18T03:27:54;128.90;2252.80
26272;DHT22;13997;48.902;12.472;2023-05-18T03:30:20;128.90;2252.80
26272;DHT22;13997;48.902;12.472;2023-05-18T03:32:46;128.80;2252.80
26272;DHT22;13997;48.902;12.472;2023-05-18T03:35:13;128.80;2252.80
26272;DHT22;13997;48.902;12.472;2023-05-18T03:37:39;128.80;2252.80
26272;DHT22;13997;48.902;12.472;2023-05-18T03:40:10;128.80;2252.80
26272;DHT22;13997;48.902;12.472;2023-05-18T03:42:36;128.80;2252.80
26272;DHT22;13997;48.902;12.472;2023-05-18T03:45:02;128.90;2252.80
26272;DHT22;13997;48.902;12.472;2023-05-18T03:47:27;128.80;2252.80
26272;DHT22;13997;48.902;12.472;2023-05-18T03:49:54;128.80;2252.80
26272;DHT22;13997;48.902;12.472;2023-05-18T03:52:19;128.80;2252.80
26272;DHT22;13997;48.902;12.472;2023-05-18T03:54:47;128.80;2252.80
26272;DHT22;13997;48.902;12.472;2023-05-18T03:57:14;128.80;2252.80
26272;DHT22;13997;48.902;12.472;2023-05-18T03:59:40;128.80;2252.80
26272;DHT22;13997;48.902;12.472;2023-05-18T04:02:05;128.80;2252.80
26272;DHT22;13997;48.902;12.472;2023-05-18T04:04:31;128.90;2252.80
26272;DHT22;13997;48.902;12.472;2023-05-18T04:06:57;128.90;2252.80
26272;DHT22;13997;48.902;12.472;2023-05-18T04:09:26;128.90;2252.80
26272;DHT22;13997;48.902;12.472;2023-05-18T04:11:52;128.90;2252.80
26272;DHT22;13997;48.902;12.472;2023-05-18T04:14:18;128.90;2252.80
26272;DHT22;13997;48.902;12.472;2023-05-18T04:16:45;128.90;2252.80
26272;DHT22;13997;48.902;12.472;2023-05-18T04:19:11;128.90;2252.80
26272;DHT22;13997;48.902;12.472;2023-05-18T04:21:38;153.60;2252.80
26272;DHT22;13997;48.902;12.472;2023-05-18T04:24:04;153.60;2252.80
26272;DHT22;13997;48.902;12.472;2023-05-18T04:26:34;153.70;2252.80
26272;DHT22;13997;48.902;12.472;2023-05-18T04:29:03;153.70;2252.80
26272;DHT22;13997;48.902;12.472;2023-05-18T04:31:28;153.70;2252.80
26272;DHT22;13997;48.902;12.472;2023-05-18T04:33:55;153.80;2252.80
26272;DHT22;13997;48.902;12.472;2023-05-18T04:36:21;153.80;2252.80
26272;DHT22;13997;48.902;12.472;2023-05-18T04:38:53;153.80;2252.80
26272;DHT22;13997;48.902;12.472;2023-05-18T04:41:23;153.80;2252.80
26272;DHT22;13997;48.902;12.472;2023-05-18T04:43:48;153.80;2252.80
26272;DHT22;13997;48.902;12.472;2023-05-18T04:46:17;153.80;2252.80
26272;DHT22;13997;48.902;12.472;2023-05-18T04:48:43;153.90;2252.80
26272;DHT22;13997;48.902;12.472;2023-05-18T04:51:08;153.90;2252.80
26272;DHT22;13997;48.902;12.472;2023-05-18T04:53:34;154.00;2252.80
26272;DHT22;13997;48.902;12.472;2023-05-18T04:56:03;154.10;2252.80
26272;DHT22;13997;48.902;12.472;2023-05-18T04:58:29;154.20;2252.80
26272;DHT22;13997;48.902;12.472;2023-05-18T05:00:55;154.30;2252.80
26272;DHT22;13997;48.902;12.472;2023-05-18T05:03:21;154.40;2252.80
26272;DHT22;13997;48.902;12.472;2023-05-18T05:05:47;179.20;2252.80
26272;DHT22;13997;48.902;12.472;2023-05-18T05:08:12;179.30;2252.80
26272;DHT22;13997;48.902;12.472;2023-05-18T05:10:38;179.50;2252.80
26272;DHT22;13997;48.902;12.472;2023-05-18T05:13:03;179.60;2252.80
26272;DHT22;13997;48.902;12.472;2023-05-18T05:15:29;179.60;2252.80
26272;DHT22;13997;48.902;12.472;2023-05-18T05:17:57;179.80;2252.80
26272;DHT22;13997;48.902;12.472;2023-05-18T05:20:22;180.00;2252.80
26272;DHT22;13997;48.902;12.472;2023-05-18T05:22:48;180.10;2252.80
26272;DHT22;13997;48.902;12.472;2023-05-18T05:25:14;204.80;2252.80
26272;DHT22;13997;48.902;12.472;2023-05-18T05:27:39;205.00;2252.80
26272;DHT22;13997;48.902;12.472;2023-05-18T05:30:05;205.20;2252.80
26272;DHT22;13997;48.902;12.472;2023-05-18T05:32:31;205.30;2252.80
26272;DHT22;13997;48.902;12.472;2023-05-18T05:34:57;205.40;2252.80
26272;DHT22;13997;48.902;12.472;2023-05-18T05:37:23;205.50;2252.80
26272;DHT22;13997;48.902;12.472;2023-05-18T05:39:48;205.70;2252.80
26272;DHT22;13997;48.902;12.472;2023-05-18T05:42:15;230.50;2252.80
26272;DHT22;13997;48.902;12.472;2023-05-18T05:44:40;230.80;2252.80
26272;DHT22;13997;48.902;12.472;2023-05-18T05:47:06;231.00;2252.80
26272;DHT22;13997;48.902;12.472;2023-05-18T05:49:33;231.10;2252.80
26272;DHT22;13997;48.902;12.472;2023-05-18T05:51:58;256.00;2252.80
26272;DHT22;13997;48.902;12.472;2023-05-18T05:54:24;256.20;2252.80
26272;DHT22;13997;48.902;12.472;2023-05-18T05:56:49;256.50;2252.80
26272;DHT22;13997;48.902;12.472;2023-05-18T05:59:15;256.80;2252.80
26272;DHT22;13997;48.902;12.472;2023-05-18T06:01:41;281.60;2278.40
26272;DHT22;13997;48.902;12.472;2023-05-18T06:04:06;281.60;2278.40
26272;DHT22;13997;48.902;12.472;2023-05-18T06:06:37;281.80;2278.40
26272;DHT22;13997;48.902;12.472;2023-05-18T06:09:03;281.90;2278.40
26272;DHT22;13997;48.902;12.472;2023-05-18T06:11:29;281.90;2278.40
26272;DHT22;13997;48.902;12.472;2023-05-18T06:13:55;282.10;2278.40
26272;DHT22;13997;48.902;12.472;2023-05-18T06:16:21;282.30;2278.40
26272;DHT22;13997;48.902;12.472;2023-05-18T06:18:47;282.50;2278.40
26272;DHT22;13997;48.902;12.472;2023-05-18T06:21:14;307.20;2304.00
26272;DHT22;13997;48.902;12.472;2023-05-18T06:23:39;307.40;2304.00
26272;DHT22;13997;48.902;12.472;2023-05-18T06:26:05;307.60;2304.00
26272;DHT22;13997;48.902;12.472;2023-05-18T06:28:31;307.80;2304.00
26272;DHT22;13997;48.902;12.472;2023-05-18T06:30:57;308.00;2304.00
26272;DHT22;13997;48.902;12.472;2023-05-18T06:33:23;332.80;2329.60
26272;DHT22;13997;48.902;12.472;2023-05-18T06:35:48;333.00;2329.60
26272;DHT22;13997;48.902;12.472;2023-05-18T06:38:14;332.90;2329.60
26272;DHT22;13997;48.902;12.472;2023-05-18T06:40:40;332.90;2329.60
26272;DHT22;13997;48.902;12.472;2023-05-18T06:43:05;308.10;2304.00
26272;DHT22;13997;48.902;12.472;2023-05-18T06:45:31;307.90;2304.00
26272;DHT22;13997;48.902;12.472;2023-05-18T06:47:56;307.90;2304.00
26272;DHT22;13997;48.902;12.472;2023-05-18T06:50:22;308.00;2304.00
26272;DHT22;13997;48.902;12.472;2023-05-18T06:52:47;332.80;2329.60
26272;DHT22;13997;48.902;12.472;2023-05-18T06:55:13;333.10;2329.60
26272;DHT22;13997;48.902;12.472;2023-05-18T06:57:39;333.30;2329.60
26272;DHT22;13997;48.902;12.472;2023-05-18T07:00:06;333.50;2329.60
26272;DHT22;13997;48.902;12.472;2023-05-18T07:02:34;333.60;2329.60
26272;DHT22;13997;48.902;12.472;2023-05-18T07:05:00;333.60;2329.60
26272;DHT22;13997;48.902;12.472;2023-05-18T07:07:26;333.60;2329.60
26272;DHT22;13997;48.902;12.472;2023-05-18T07:09:51;333.60;2329.60
26272;DHT22;13997;48.902;12.472;2023-05-18T07:12:19;333.70;2329.60
26272;DHT22;13997;48.902;12.472;2023-05-18T07:14:44;358.50;2329.60
26272;DHT22;13997;48.902;12.472;2023-05-18T07:17:10;358.60;2329.60
26272;DHT22;13997;48.902;12.472;2023-05-18T07:19:36;358.70;2329.60
26272;DHT22;13997;48.902;12.472;2023-05-18T07:22:01;358.70;2329.60
26272;DHT22;13997;48.902;12.472;2023-05-18T07:24:28;358.70;2329.60
26272;DHT22;13997;48.902;12.472;2023-05-18T07:26:54;358.70;2329.60
26272;DHT22;13997;48.902;12.472;2023-05-18T07:29:20;358.70;2329.60
26272;DHT22;13997;48.902;12.472;2023-05-18T07:31:46;358.70;2329.60
26272;DHT22;13997;48.902;12.472;2023-05-18T07:34:11;358.80;2329.60
26272;DHT22;13997;48.902;12.472;2023-05-18T07:36:37;358.90;2329.60
26272;DHT22;13997;48.902;12.472;2023-05-18T07:39:02;359.00;2329.60
26272;DHT22;13997;48.902;12.472;2023-05-18T07:41:28;359.10;2329.60
26272;DHT22;13997;48.902;12.472;2023-05-18T07:43:55;359.30;2329.60
26272;DHT22;13997;48.902;12.472;2023-05-18T07:46:21;384.00;2329.60
26272;DHT22;13997;48.902;12.472;2023-05-18T07:48:47;384.00;2329.60
26272;DHT22;13997;48.902;12.472;2023-05-18T07:51:12;359.20;2329.60
26272;DHT22;13997;48.902;12.472;2023-05-18T07:53:38;359.20;2329.60
26272;DHT22;13997;48.902;12.472;2023-05-18T07:56:05;359.10;2329.60
26272;DHT22;13997;48.902;12.472;2023-05-18T07:58:32;359.10;2329.60
26272;DHT22;13997;48.902;12.472;2023-05-18T08:00:57;359.10;2329.60
26272;DHT22;13997;48.902;12.472;2023-05-18T08:03:23;359.10;2329.60
26272;DHT22;13997;48.902;12.472;2023-05-18T08:05:49;384.00;2329.60
26272;DHT22;13997;48.902;12.472;2023-05-18T08:08:14;384.20;2329.60
26272;DHT22;13997;48.902;12.472;2023-05-18T08:10:40;384.40;2329.60
26272;DHT22;13997;48.902;12.472;2023-05-18T08:13:06;384.60;2329.60
26272;DHT22;13997;48.902;12.472;2023-05-18T08:15:33;384.80;2329.60
26272;DHT22;13997;48.902;12.472;2023-05-18T08:17:59;384.80;2329.60
26272;DHT22;13997;48.902;12.472;2023-05-18T08:20:25;384.80;2329.60
26272;DHT22;13997;48.902;12.472;2023-05-18T08:22:57;384.80;2329.60
26272;DHT22;13997;48.902;12.472;2023-05-18T08:25:24;384.90;2329.60
26272;DHT22;13997;48.902;12.472;2023-05-18T08:27:50;384.70;2329.60
26272;DHT22;13997;48.902;12.472;2023-05-18T08:30:15;384.60;2329.60
26272;DHT22;13997;48.902;12.472;2023-05-18T08:32:44;384.80;2329.60
26272;DHT22;13997;48.902;12.472;2023-05-18T08:35:10;409.60;2355.20
26272;DHT22;13997;48.902;12.472;2023-05-18T09:07:23;409.80;2355.20
26272;DHT22;13997;48.902;12.472;2023-05-18T09:09:49;435.80;2355.20
26272;DHT22;13997;48.902;12.472;2023-05-18T09:12:17;436.10;2355.20
26272;DHT22;13997;48.902;12.472;2023-05-18T09:14:44;460.90;2380.80
26272;DHT22;13997;48.902;12.472;2023-05-18T09:17:10;460.90;2380.80
26272;DHT22;13997;48.902;12.472;2023-05-18T09:19:35;460.80;2380.80
26272;DHT22;13997;48.902;12.472;2023-05-18T09:22:01;461.00;2380.80
26272;DHT22;13997;48.902;12.472;2023-05-18T09:24:27;461.10;2380.80
26272;DHT22;13997;48.902;12.472;2023-05-18T09:26:52;461.10;2380.80
26272;DHT22;13997;48.902;12.472;2023-05-18T09:29:19;461.00;2380.80
26272;DHT22;13997;48.902;12.472;2023-05-18T09:31:46;461.00;2380.80
26272;DHT22;13997;48.902;12.472;2023-05-18T09:34:13;460.80;2380.80
26272;DHT22;13997;48.902;12.472;2023-05-18T09:36:38;460.80;2380.80
26272;DHT22;13997;48.902;12.472;2023-05-18T09:39:11;460.90;2380.80
26272;DHT22;13997;48.902;12.472;2023-05-18T09:41:40;435.90;2355.20
26272;DHT22;13997;48.902;12.472;2023-05-18T09:44:06;436.00;2355.20
26272;DHT22;13997;48.902;12.472;2023-05-18T09:46:37;436.10;2329.60
26272;DHT22;13997;48.902;12.472;2023-05-18T09:49:04;436.10;2304.00
26272;DHT22;13997;48.902;12.472;2023-05-18T09:51:34;461.00;2380.80
26272;DHT22;13997;48.902;12.472;2023-05-18T09:54:00;461.00;2380.80
26272;DHT22;13997;48.902;12.472;2023-05-18T09:56:29;461.00;2380.80
26272;DHT22;13997;48.902;12.472;2023-05-18T09:58:54;460.90;2380.80
26272;DHT22;13997;48.902;12.472;2023-05-18T10:01:20;461.00;2380.80
26272;DHT22;13997;48.902;12.472;2023-05-18T10:03:46;461.10;2380.80
26272;DHT22;13997;48.902;12.472;2023-05-18T10:06:13;461.20;2380.80
26272;DHT22;13997;48.902;12.472;2023-05-18T10:08:41;461.30;2380.80
26272;DHT22;13997;48.902;12.472;2023-05-18T10:11:08;461.20;2380.80
26272;DHT22;13997;48.902;12.472;2023-05-18T10:13:33;460.80;2380.80
26272;DHT22;13997;48.902;12.472;2023-05-18T10:16:01;436.10;2355.20
26272;DHT22;13997;48.902;12.472;2023-05-18T10:18:34;436.10;2355.20
26272;DHT22;13997;48.902;12.472;2023-05-18T10:21:01;436.10;2355.20
26272;DHT22;13997;48.902;12.472;2023-05-18T10:23:31;436.00;2355.20
26272;DHT22;13997;48.902;12.472;2023-05-18T10:25:58;435.80;2355.20
26272;DHT22;13997;48.902;12.472;2023-05-18T10:28:30;435.80;2355.20
26272;DHT22;13997;48.902;12.472;2023-05-18T10:30:59;435.80;2355.20
26272;DHT22;13997;48.902;12.472;2023-05-18T10:33:26;436.00;2355.20
26272;DHT22;13997;48.902;12.472;2023-05-18T10:35:53;460.90;2380.80
26272;DHT22;13997;48.902;12.472;2023-05-18T10:38:27;461.10;2380.80
26272;DHT22;13997;48.902;12.472;2023-05-18T10:40:54;461.50;2380.80
26272;DHT22;13997;48.902;12.472;2023-05-18T10:43:22;486.40;2355.20
26272;DHT22;13997;48.902;12.472;2023-05-18T10:49:00;486.70;2380.80
26272;DHT22;13997;48.902;12.472;2023-05-18T10:51:29;486.50;2380.80
26272;DHT22;13997;48.902;12.472;2023-05-18T10:54:10;486.60;2252.80
26272;DHT22;13997;48.902;12.472;2023-05-18T10:56:38;486.50;2304.00
26272;DHT22;13997;48.902;12.472;2023-05-18T10:59:07;486.60;2380.80
26272;DHT22;13997;48.902;12.472;2023-05-18T11:01:33;486.60;2329.60
26272;DHT22;13997;48.902;12.472;2023-05-18T11:04:03;486.60;2329.60
26272;DHT22;13997;48.902;12.472;2023-05-18T11:06:29;486.70;2380.80
26272;DHT22;13997;48.902;12.472;2023-05-18T11:08:55;486.80;2380.80
26272;DHT22;13997;48.902;12.472;2023-05-18T11:11:24;487.00;2278.40
26272;DHT22;13997;48.902;12.472;2023-05-18T11:13:52;487.00;2329.60
26272;DHT22;13997;48.902;12.472;2023-05-18T11:16:18;486.90;2099.20
26272;DHT22;13997;48.902;12.472;2023-05-18T11:18:48;486.70;2278.40
26272;DHT22;13997;48.902;12.472;2023-05-18T18:18:47;487.20;2304.00
26272;DHT22;13997;48.902;12.472;2023-05-18T18:21:13;384.20;2329.60
26272;DHT22;13997;48.902;12.472;2023-05-18T18:23:39;384.00;2329.60
26272;DHT22;13997;48.902;12.472;2023-05-18T18:26:05;359.30;2329.60
26272;DHT22;13997;48.902;12.472;2023-05-18T18:28:32;359.30;2329.60
26272;DHT22;13997;48.902;12.472;2023-05-18T18:30:58;359.20;2329.60
26272;DHT22;13997;48.902;12.472;2023-05-18T18:33:24;359.20;2329.60
26272;DHT22;13997;48.902;12.472;2023-05-18T18:35:51;359.20;2329.60
26272;DHT22;13997;48.902;12.472;2023-05-18T18:38:17;359.10;2329.60
26272;DHT22;13997;48.902;12.472;2023-05-18T18:40:43;359.10;2329.60
26272;DHT22;13997;48.902;12.472;2023-05-18T18:43:08;359.00;2329.60
26272;DHT22;13997;48.902;12.472;2023-05-18T18:45:34;359.00;2329.60
26272;DHT22;13997;48.902;12.472;2023-05-18T18:48:00;358.90;2329.60
26272;DHT22;13997;48.902;12.472;2023-05-18T18:50:26;358.90;2329.60
26272;DHT22;13997;48.902;12.472;2023-05-18T18:52:51;358.80;2329.60
26272;DHT22;13997;48.902;12.472;2023-05-18T18:55:17;358.80;2329.60
26272;DHT22;13997;48.902;12.472;2023-05-18T18:57:44;358.80;2329.60
26272;DHT22;13997;48.902;12.472;2023-05-18T19:00:11;358.70;2329.60
26272;DHT22;13997;48.902;12.472;2023-05-18T19:02:40;358.70;2329.60
26272;DHT22;13997;48.902;12.472;2023-05-18T19:05:06;358.70;2329.60
26272;DHT22;13997;48.902;12.472;2023-05-18T19:07:34;358.60;2329.60
26272;DHT22;13997;48.902;12.472;2023-05-18T19:10:01;358.60;2329.60
26272;DHT22;13997;48.902;12.472;2023-05-18T19:12:28;358.50;2329.60
26272;DHT22;13997;48.902;12.472;2023-05-18T19:14:53;358.50;2329.60
26272;DHT22;13997;48.902;12.472;2023-05-18T19:17:19;358.40;2329.60
26272;DHT22;13997;48.902;12.472;2023-05-18T19:19:44;358.40;2329.60
26272;DHT22;13997;48.902;12.472;2023-05-18T19:22:10;358.40;2329.60
26272;DHT22;13997;48.902;12.472;2023-05-18T19:24:35;358.40;2329.60
26272;DHT22;13997;48.902;12.472;2023-05-18T19:27:01;333.70;2329.60
26272;DHT22;13997;48.902;12.472;2023-05-18T19:29:27;333.70;2329.60
26272;DHT22;13997;48.902;12.472;2023-05-18T19:31:53;333.60;2329.60
26272;DHT22;13997;48.902;12.472;2023-05-18T19:34:19;333.60;2329.60
26272;DHT22;13997;48.902;12.472;2023-05-18T19:36:46;333.60;2329.60
26272;DHT22;13997;48.902;12.472;2023-05-18T19:39:14;333.60;2329.60
26272;DHT22;13997;48.902;12.472;2023-05-18T19:41:41;333.60;2329.60
26272;DHT22;13997;48.902;12.472;2023-05-18T19:44:06;333.60;2329.60
26272;DHT22;13997;48.902;12.472;2023-05-18T19:46:32;333.60;2329.60
26272;DHT22;13997;48.902;12.472;2023-05-18T19:48:57;333.60;2329.60
26272;DHT22;13997;48.902;12.472;2023-05-18T19:51:23;333.60;2329.60
26272;DHT22;13997;48.902;12.472;2023-05-18T19:53:49;333.60;2329.60
26272;DHT22;13997;48.902;12.472;2023-05-18T19:56:14;333.60;2329.60
26272;DHT22;13997;48.902;12.472;2023-05-18T19:58:40;333.60;2329.60
26272;DHT22;13997;48.902;12.472;2023-05-18T20:01:06;333.60;2329.60
26272;DHT22;13997;48.902;12.472;2023-05-18T20:03:34;333.60;2329.60
26272;DHT22;13997;48.902;12.472;2023-05-18T20:06:03;333.60;2329.60
26272;DHT22;13997;48.902;12.472;2023-05-18T20:08:31;333.60;2329.60
26272;DHT22;13997;48.902;12.472;2023-05-18T20:10:58;333.60;2329.60
26272;DHT22;13997;48.902;12.472;2023-05-18T20:13:23;333.60;2329.60
26272;DHT22;13997;48.902;12.472;2023-05-18T20:15:49;333.60;2329.60
26272;DHT22;13997;48.902;12.472;2023-05-18T20:18:15;333.60;2329.60
26272;DHT22;13997;48.902;12.472;2023-05-18T20:20:41;333.60;2329.60
26272;DHT22;13997;48.902;12.472;2023-05-18T20:23:06;333.60;2329.60
26272;DHT22;13997;48.902;12.472;2023-05-18T20:28:53;333.40;2329.60
26272;DHT22;13997;48.902;12.472;2023-05-18T20:31:19;333.40;2329.60
26272;DHT22;13997;48.902;12.472;2023-05-18T20:33:45;333.40;2329.60
26272;DHT22;13997;48.902;12.472;2023-05-18T20:36:11;333.40;2329.60
26272;DHT22;13997;48.902;12.472;2023-05-18T20:38:38;333.40;2329.60
26272;DHT22;13997;48.902;12.472;2023-05-18T20:41:04;333.40;2329.60
26272;DHT22;13997;48.902;12.472;2023-05-18T20:43:33;333.30;2329.60
26272;DHT22;13997;48.902;12.472;2023-05-18T20:45:59;333.30;2329.60
26272;DHT22;13997;48.902;12.472;2023-05-18T20:48:25;333.20;2329.60
26272;DHT22;13997;48.902;12.472;2023-05-18T20:50:52;333.20;2329.60
26272;DHT22;13997;48.902;12.472;2023-05-18T20:53:18;333.20;2329.60
26272;DHT22;13997;48.902;12.472;2023-05-18T20:55:44;333.10;2329.60
26272;DHT22;13997;48.902;12.472;2023-05-18T20:58:15;333.10;2329.60
26272;DHT22;13997;48.902;12.472;2023-05-18T21:00:44;333.10;2329.60
26272;DHT22;13997;48.902;12.472;2023-05-18T21:03:10;333.10;2329.60
26272;DHT22;13997;48.902;12.472;2023-05-18T21:05:38;333.10;2329.60
26272;DHT22;13997;48.902;12.472;2023-05-18T21:08:05;333.00;2329.60
26272;DHT22;13997;48.902;12.472;2023-05-18T21:10:31;333.00;2329.60
26272;DHT22;13997;48.902;12.472;2023-05-18T21:12:57;333.00;2329.60
26272;DHT22;13997;48.902;12.472;2023-05-18T21:15:22;333.00;2329.60
26272;DHT22;13997;48.902;12.472;2023-05-18T21:17:48;332.90;2329.60
26272;DHT22;13997;48.902;12.472;2023-05-18T21:20:13;332.90;2329.60
26272;DHT22;13997;48.902;12.472;2023-05-18T21:22:39;332.90;2329.60
26272;DHT22;13997;48.902;12.472;2023-05-18T21:25:05;332.90;2329.60
26272;DHT22;13997;48.902;12.472;2023-05-18T21:27:31;332.90;2329.60
26272;DHT22;13997;48.902;12.472;2023-05-18T21:29:57;332.90;2329.60
26272;DHT22;13997;48.902;12.472;2023-05-18T21:32:23;332.90;2329.60
26272;DHT22;13997;48.902;12.472;2023-05-18T21:34:48;332.90;2329.60
26272;DHT22;13997;48.902;12.472;2023-05-18T21:37:14;332.80;2329.60
26272;DHT22;13997;48.902;12.472;2023-05-18T21:39:40;332.80;2329.60
26272;DHT22;13997;48.902;12.472;2023-05-18T21:42:09;332.80;2329.60
26272;DHT22;13997;48.902;12.472;2023-05-18T21:44:34;332.80;2329.60
26272;DHT22;13997;48.902;12.472;2023-05-18T21:47:00;308.10;2304.00
26272;DHT22;13997;48.902;12.472;2023-05-18T21:49:26;308.10;2304.00
26272;DHT22;13997;48.902;12.472;2023-05-18T21:51:52;308.10;2304.00
26272;DHT22;13997;48.902;12.472;2023-05-18T21:54:17;308.10;2304.00
26272;DHT22;13997;48.902;12.472;2023-05-18T21:56:43;308.10;2304.00
26272;DHT22;13997;48.902;12.472;2023-05-18T21:59:08;308.10;2304.00
26272;DHT22;13997;48.902;12.472;2023-05-18T22:01:34;308.10;2304.00
26272;DHT22;13997;48.902;12.472;2023-05-18T22:04:00;308.10;2304.00
26272;DHT22;13997;48.902;12.472;2023-05-18T22:06:25;308.10;2304.00
26272;DHT22;13997;48.902;12.472;2023-05-18T22:08:51;308.10;2304.00
26272;DHT22;13997;48.902;12.472;2023-05-18T22:11:17;308.00;2304.00
26272;DHT22;13997;48.902;12.472;2023-05-18T22:13:43;308.00;2304.00
26272;DHT22;13997;48.902;12.472;2023-05-18T22:16:08;308.00;2304.00
26272;DHT22;13997;48.902;12.472;2023-05-18T22:18:34;308.00;2304.00